sensor_id;sensor_type;location;lat;lon;timestamp;P1;durP1;ratioP1;P2;durP2;ratioP2
8279;SDS011;8335;42.646;23.380;2023-10-13T00:00:49;10.03;;;6.00;;
8279;SDS011;8335;42.646;23.380;2023-10-13T00:03:22;9.00;;;5.63;;
8279;SDS011;8335;42.646;23.380;2023-10-13T00:05:50;10.17;;;6.43;;
8279;SDS011;8335;42.646;23.380;2023-10-13T00:08:18;8.73;;;6.27;;
8279;SDS011;8335;42.646;23.380;2023-10-13T00:10:45;8.07;;;6.00;;
8279;SDS011;8335;42.646;23.380;2023-10-13T00:13:13;7.90;;;5.63;;
8279;SDS011;8335;42.646;23.380;2023-10-13T00:15:43;9.03;;;6.20;;
8279;SDS011;8335;42.646;23.380;2023-10-13T00:18:22;8.47;;;6.07;;
8279;SDS011;8335;42.646;23.380;2023-10-13T00:20:49;8.30;;;6.60;;
8279;SDS011;8335;42.646;23.380;2023-10-13T00:23:15;9.90;;;6.00;;
8279;SDS011;8335;42.646;23.380;2023-10-13T00:25:46;8.87;;;5.83;;
8279;SDS011;8335;42.646;23.380;2023-10-13T00:28:22;9.63;;;6.70;;
8279;SDS011;8335;42.646;23.380;2023-10-13T00:30:51;7.53;;;5.93;;
8279;SDS011;8335;42.646;23.380;2023-10-13T00:33:24;9.73;;;6.17;;
8279;SDS011;8335;42.646;23.380;2023-10-13T00:35:52;8.97;;;6.50;;
8279;SDS011;8335;42.646;23.380;2023-10-13T00:38:22;7.90;;;6.23;;
8279;SDS011;8335;42.646;23.380;2023-10-13T00:40:49;10.40;;;6.00;;
8279;SDS011;8335;42.646;23.380;2023-10-13T00:43:20;8.67;;;6.33;;
8279;SDS011;8335;42.646;23.380;2023-10-13T00:46:06;10.80;;;5.77;;
8279;SDS011;8335;42.646;23.380;2023-10-13T00:48:34;8.10;;;6.40;;
8279;SDS011;8335;42.646;23.380;2023-10-13T00:51:07;9.07;;;6.43;;
8279;SDS011;8335;42.646;23.380;2023-10-13T00:53:43;8.17;;;5.87;;
8279;SDS011;8335;42.646;23.380;2023-10-13T00:56:10;11.07;;;6.37;;
8279;SDS011;8335;42.646;23.380;2023-10-13T00:58:52;8.43;;;6.00;;
8279;SDS011;8335;42.646;23.380;2023-10-13T01:01:20;9.27;;;5.63;;
8279;SDS011;8335;42.646;23.380;2023-10-13T01:03:55;8.80;;;6.20;;
8279;SDS011;8335;42.646;23.380;2023-10-13T01:06:24;11.17;;;6.23;;
8279;SDS011;8335;42.646;23.380;2023-10-13T01:08:56;10.70;;;7.10;;
8279;SDS011;8335;42.646;23.380;2023-10-13T01:11:25;9.07;;;6.37;;
8279;SDS011;8335;42.646;23.380;2023-10-13T01:13:54;9.00;;;6.00;;
8279;SDS011;8335;42.646;23.380;2023-10-13T01:16:22;9.67;;;6.33;;
8279;SDS011;8335;42.646;23.380;2023-10-13T01:18:52;7.00;;;6.20;;
8279;SDS011;8335;42.646;23.380;2023-10-13T01:21:18;11.70;;;6.20;;
8279;SDS011;8335;42.646;23.380;2023-10-13T01:23:47;10.50;;;6.60;;
8279;SDS011;8335;42.646;23.380;2023-10-13T01:26:15;12.27;;;6.73;;
8279;SDS011;8335;42.646;23.380;2023-10-13T01:28:46;8.90;;;6.07;;
8279;SDS011;8335;42.646;23.380;2023-10-13T01:31:15;9.53;;;5.97;;
8279;SDS011;8335;42.646;23.380;2023-10-13T01:33:52;8.17;;;6.37;;
8279;SDS011;8335;42.646;23.380;2023-10-13T01:36:20;8.63;;;6.40;;
8279;SDS011;8335;42.646;23.380;2023-10-13T01:38:49;11.67;;;6.90;;
8279;SDS011;8335;42.646;23.380;2023-10-13T01:41:15;8.93;;;6.50;;
8279;SDS011;8335;42.646;23.380;2023-10-13T01:43:42;8.33;;;6.43;;
8279;SDS011;8335;42.646;23.380;2023-10-13T01:46:08;10.63;;;6.77;;
8279;SDS011;8335;42.646;23.380;2023-10-13T01:48:38;10.00;;;6.83;;
8279;SDS011;8335;42.646;23.380;2023-10-13T01:51:05;10.00;;;6.60;;
8279;SDS011;8335;42.646;23.380;2023-10-13T01:53:35;9.60;;;6.50;;
8279;SDS011;8335;42.646;23.380;2023-10-13T01:56:03;9.50;;;6.43;;
8279;SDS011;8335;42.646;23.380;2023-10-13T01:58:35;9.13;;;6.27;;
8279;SDS011;8335;42.646;23.380;2023-10-13T02:01:02;7.83;;;6.43;;
8279;SDS011;8335;42.646;23.380;2023-10-13T02:03:32;12.23;;;7.20;;
8279;SDS011;8335;42.646;23.380;2023-10-13T02:05:58;12.87;;;7.03;;
8279;SDS011;8335;42.646;23.380;2023-10-13T02:08:29;10.07;;;6.63;;
8279;SDS011;8335;42.646;23.380;2023-10-13T02:10:57;8.77;;;6.83;;
8279;SDS011;8335;42.646;23.380;2023-10-13T02:13:27;10.30;;;7.27;;
8279;SDS011;8335;42.646;23.380;2023-10-13T02:15:55;8.77;;;6.67;;
8279;SDS011;8335;42.646;23.380;2023-10-13T02:18:23;9.37;;;6.80;;
8279;SDS011;8335;42.646;23.380;2023-10-13T02:20:51;10.13;;;7.43;;
8279;SDS011;8335;42.646;23.380;2023-10-13T02:23:21;11.07;;;6.67;;
8279;SDS011;8335;42.646;23.380;2023-10-13T02:25:47;13.43;;;7.03;;
8279;SDS011;8335;42.646;23.380;2023-10-13T02:28:18;12.03;;;7.10;;
8279;SDS011;8335;42.646;23.380;2023-10-13T02:30:48;10.70;;;6.47;;
8279;SDS011;8335;42.646;23.380;2023-10-13T02:33:16;8.97;;;6.00;;
8279;SDS011;8335;42.646;23.380;2023-10-13T02:35:47;8.53;;;6.47;;
8279;SDS011;8335;42.646;23.380;2023-10-13T02:38:19;9.43;;;6.73;;
8279;SDS011;8335;42.646;23.380;2023-10-13T02:40:53;6.93;;;6.23;;
8279;SDS011;8335;42.646;23.380;2023-10-13T02:43:21;12.07;;;6.80;;
8279;SDS011;8335;42.646;23.380;2023-10-13T02:45:55;9.50;;;5.80;;
8279;SDS011;8335;42.646;23.380;2023-10-13T02:48:24;10.67;;;6.27;;
8279;SDS011;8335;42.646;23.380;2023-10-13T02:50:56;8.43;;;6.40;;
8279;SDS011;8335;42.646;23.380;2023-10-13T02:53:31;11.47;;;7.17;;
8279;SDS011;8335;42.646;23.380;2023-10-13T02:55:56;8.30;;;6.53;;
8279;SDS011;8335;42.646;23.380;2023-10-13T02:58:31;9.37;;;7.00;;
8279;SDS011;8335;42.646;23.380;2023-10-13T03:01:06;11.93;;;6.67;;
8279;SDS011;8335;42.646;23.380;2023-10-13T03:03:42;9.17;;;6.13;;
8279;SDS011;8335;42.646;23.380;2023-10-13T03:06:13;11.17;;;6.43;;
8279;SDS011;8335;42.646;23.380;2023-10-13T03:08:40;10.77;;;6.67;;
8279;SDS011;8335;42.646;23.380;2023-10-13T03:11:08;8.70;;;6.90;;
8279;SDS011;8335;42.646;23.380;2023-10-13T03:13:36;10.90;;;7.13;;
8279;SDS011;8335;42.646;23.380;2023-10-13T03:16:11;9.27;;;7.00;;
8279;SDS011;8335;42.646;23.380;2023-10-13T03:18:41;10.07;;;6.57;;
8279;SDS011;8335;42.646;23.380;2023-10-13T03:21:16;8.93;;;6.23;;
8279;SDS011;8335;42.646;23.380;2023-10-13T03:23:53;9.10;;;6.50;;
8279;SDS011;8335;42.646;23.380;2023-10-13T03:26:19;10.37;;;6.27;;
8279;SDS011;8335;42.646;23.380;2023-10-13T03:28:46;9.73;;;7.17;;
8279;SDS011;8335;42.646;23.380;2023-10-13T03:31:18;12.60;;;6.60;;
8279;SDS011;8335;42.646;23.380;2023-10-13T03:33:52;9.67;;;6.03;;
8279;SDS011;8335;42.646;23.380;2023-10-13T03:36:25;9.93;;;6.67;;
8279;SDS011;8335;42.646;23.380;2023-10-13T03:39:17;12.23;;;7.23;;
8279;SDS011;8335;42.646;23.380;2023-10-13T03:41:44;13.70;;;7.10;;
8279;SDS011;8335;42.646;23.380;2023-10-13T03:44:18;10.97;;;7.30;;
8279;SDS011;8335;42.646;23.380;2023-10-13T03:46:46;9.30;;;6.90;;
8279;SDS011;8335;42.646;23.380;2023-10-13T03:49:14;10.90;;;6.80;;
8279;SDS011;8335;42.646;23.380;2023-10-13T03:51:46;12.87;;;7.53;;
8279;SDS011;8335;42.646;23.380;2023-10-13T03:54:14;11.37;;;7.60;;
8279;SDS011;8335;42.646;23.380;2023-10-13T03:56:41;14.40;;;6.80;;
8279;SDS011;8335;42.646;23.380;2023-10-13T03:59:09;12.90;;;7.43;;
8279;SDS011;8335;42.646;23.380;2023-10-13T04:01:43;11.50;;;7.90;;
8279;SDS011;8335;42.646;23.380;2023-10-13T04:04:24;13.13;;;7.30;;
8279;SDS011;8335;42.646;23.380;2023-10-13T04:07:07;10.47;;;7.73;;
8279;SDS011;8335;42.646;23.380;2023-10-13T04:10:00;12.40;;;8.07;;
8279;SDS011;8335;42.646;23.380;2023-10-13T04:12:44;9.03;;;7.20;;
8279;SDS011;8335;42.646;23.380;2023-10-13T04:15:28;14.77;;;7.53;;
8279;SDS011;8335;42.646;23.380;2023-10-13T04:18:06;12.03;;;7.50;;
8279;SDS011;8335;42.646;23.380;2023-10-13T04:20:57;12.73;;;8.80;;
8279;SDS011;8335;42.646;23.380;2023-10-13T04:23:33;12.57;;;7.93;;
8279;SDS011;8335;42.646;23.380;2023-10-13T04:26:19;14.83;;;9.17;;
8279;SDS011;8335;42.646;23.380;2023-10-13T04:28:48;12.77;;;8.77;;
8279;SDS011;8335;42.646;23.380;2023-10-13T04:31:16;12.03;;;8.10;;
8279;SDS011;8335;42.646;23.380;2023-10-13T04:34:05;11.77;;;7.40;;
8279;SDS011;8335;42.646;23.380;2023-10-13T04:36:42;10.50;;;7.10;;
8279;SDS011;8335;42.646;23.380;2023-10-13T04:39:10;10.87;;;6.67;;
8279;SDS011;8335;42.646;23.380;2023-10-13T04:41:42;12.40;;;7.17;;
8279;SDS011;8335;42.646;23.380;2023-10-13T04:44:08;8.67;;;6.80;;
8279;SDS011;8335;42.646;23.380;2023-10-13T04:46:52;8.57;;;6.63;;
8279;SDS011;8335;42.646;23.380;2023-10-13T04:49:33;10.20;;;6.83;;
8279;SDS011;8335;42.646;23.380;2023-10-13T04:52:16;12.43;;;7.17;;
8279;SDS011;8335;42.646;23.380;2023-10-13T04:55:04;12.87;;;7.07;;
8279;SDS011;8335;42.646;23.380;2023-10-13T04:57:52;9.83;;;6.50;;
8279;SDS011;8335;42.646;23.380;2023-10-13T05:00:35;11.47;;;7.03;;
8279;SDS011;8335;42.646;23.380;2023-10-13T05:03:19;10.20;;;7.37;;
8279;SDS011;8335;42.646;23.380;2023-10-13T05:06:05;11.03;;;7.17;;
8279;SDS011;8335;42.646;23.380;2023-10-13T05:09:01;11.83;;;7.30;;
8279;SDS011;8335;42.646;23.380;2023-10-13T05:11:45;11.37;;;7.27;;
8279;SDS011;8335;42.646;23.380;2023-10-13T05:14:29;14.43;;;7.43;;
8279;SDS011;8335;42.646;23.380;2023-10-13T05:17:13;11.50;;;7.93;;
8279;SDS011;8335;42.646;23.380;2023-10-13T05:19:57;10.90;;;7.53;;
8279;SDS011;8335;42.646;23.380;2023-10-13T05:22:42;13.77;;;8.00;;
8279;SDS011;8335;42.646;23.380;2023-10-13T05:25:27;14.57;;;7.47;;
8279;SDS011;8335;42.646;23.380;2023-10-13T05:28:11;15.80;;;8.17;;
8279;SDS011;8335;42.646;23.380;2023-10-13T05:31:01;15.37;;;7.77;;
8279;SDS011;8335;42.646;23.380;2023-10-13T05:33:46;15.17;;;7.23;;
8279;SDS011;8335;42.646;23.380;2023-10-13T05:36:32;10.47;;;6.90;;
8279;SDS011;8335;42.646;23.380;2023-10-13T05:39:17;12.07;;;7.57;;
8279;SDS011;8335;42.646;23.380;2023-10-13T05:42:02;12.07;;;7.27;;
8279;SDS011;8335;42.646;23.380;2023-10-13T05:44:47;9.30;;;7.33;;
8279;SDS011;8335;42.646;23.380;2023-10-13T05:47:22;7.93;;;6.30;;
8279;SDS011;8335;42.646;23.380;2023-10-13T05:50:06;10.53;;;6.33;;
8279;SDS011;8335;42.646;23.380;2023-10-13T05:52:54;11.10;;;5.93;;
8279;SDS011;8335;42.646;23.380;2023-10-13T05:55:38;11.17;;;5.93;;
8279;SDS011;8335;42.646;23.380;2023-10-13T05:58:24;11.93;;;5.90;;
8279;SDS011;8335;42.646;23.380;2023-10-13T06:01:05;11.05;;;5.68;;
8279;SDS011;8335;42.646;23.380;2023-10-13T06:03:49;12.82;;;5.90;;
8279;SDS011;8335;42.646;23.380;2023-10-13T06:06:33;10.52;;;5.90;;
8279;SDS011;8335;42.646;23.380;2023-10-13T06:09:17;9.18;;;5.55;;
8279;SDS011;8335;42.646;23.380;2023-10-13T06:12:00;11.80;;;5.85;;
8279;SDS011;8335;42.646;23.380;2023-10-13T06:14:46;12.38;;;6.25;;
8279;SDS011;8335;42.646;23.380;2023-10-13T06:17:31;9.90;;;6.32;;
8279;SDS011;8335;42.646;23.380;2023-10-13T06:20:17;19.00;;;7.25;;
8279;SDS011;8335;42.646;23.380;2023-10-13T06:23:01;14.45;;;7.15;;
8279;SDS011;8335;42.646;23.380;2023-10-13T06:25:50;14.23;;;7.22;;
8279;SDS011;8335;42.646;23.380;2023-10-13T06:28:34;13.75;;;6.78;;
8279;SDS011;8335;42.646;23.380;2023-10-13T06:31:08;12.40;;;6.75;;
8279;SDS011;8335;42.646;23.380;2023-10-13T06:33:46;12.07;;;7.30;;
8279;SDS011;8335;42.646;23.380;2023-10-13T06:36:13;13.15;;;6.95;;
8279;SDS011;8335;42.646;23.380;2023-10-13T06:38:47;15.20;;;7.18;;
8279;SDS011;8335;42.646;23.380;2023-10-13T06:41:20;17.73;;;7.68;;
8279;SDS011;8335;42.646;23.380;2023-10-13T06:43:55;25.10;;;7.82;;
8279;SDS011;8335;42.646;23.380;2023-10-13T06:46:29;14.88;;;7.05;;
8279;SDS011;8335;42.646;23.380;2023-10-13T06:48:59;14.05;;;7.10;;
8279;SDS011;8335;42.646;23.380;2023-10-13T06:51:27;13.20;;;7.07;;
8279;SDS011;8335;42.646;23.380;2023-10-13T06:54:03;13.60;;;6.80;;
8279;SDS011;8335;42.646;23.380;2023-10-13T06:56:35;15.32;;;7.55;;
8279;SDS011;8335;42.646;23.380;2023-10-13T06:59:04;13.65;;;7.55;;
8279;SDS011;8335;42.646;23.380;2023-10-13T07:01:33;16.27;;;7.40;;
8279;SDS011;8335;42.646;23.380;2023-10-13T07:04:04;8.90;;;7.20;;
8279;SDS011;8335;42.646;23.380;2023-10-13T07:06:38;18.67;;;8.18;;
8279;SDS011;8335;42.646;23.380;2023-10-13T07:09:07;16.75;;;8.35;;
8279;SDS011;8335;42.646;23.380;2023-10-13T07:11:54;12.70;;;7.47;;
8279;SDS011;8335;42.646;23.380;2023-10-13T07:14:26;20.95;;;9.38;;
8279;SDS011;8335;42.646;23.380;2023-10-13T07:17:00;14.95;;;8.73;;
8279;SDS011;8335;42.646;23.380;2023-10-13T07:19:30;15.75;;;8.13;;
8279;SDS011;8335;42.646;23.380;2023-10-13T07:21:59;17.48;;;8.30;;
8279;SDS011;8335;42.646;23.380;2023-10-13T07:24:44;11.45;;;7.72;;
8279;SDS011;8335;42.646;23.380;2023-10-13T07:27:13;14.57;;;7.57;;
8279;SDS011;8335;42.646;23.380;2023-10-13T07:29:47;18.13;;;9.02;;
8279;SDS011;8335;42.646;23.380;2023-10-13T07:32:22;13.68;;;7.95;;
8279;SDS011;8335;42.646;23.380;2023-10-13T07:34:54;13.65;;;8.60;;
8279;SDS011;8335;42.646;23.380;2023-10-13T07:37:34;14.25;;;7.43;;
8279;SDS011;8335;42.646;23.380;2023-10-13T07:40:01;14.93;;;8.52;;
8279;SDS011;8335;42.646;23.380;2023-10-13T07:42:37;18.88;;;8.20;;
8279;SDS011;8335;42.646;23.380;2023-10-13T07:45:05;17.05;;;7.82;;
8279;SDS011;8335;42.646;23.380;2023-10-13T07:47:34;18.00;;;7.97;;
8279;SDS011;8335;42.646;23.380;2023-10-13T07:50:01;14.98;;;8.68;;
8279;SDS011;8335;42.646;23.380;2023-10-13T07:52:32;16.63;;;8.07;;
8279;SDS011;8335;42.646;23.380;2023-10-13T07:55:07;18.15;;;9.00;;
8279;SDS011;8335;42.646;23.380;2023-10-13T07:57:39;16.73;;;7.93;;
8279;SDS011;8335;42.646;23.380;2023-10-13T08:00:19;16.55;;;8.40;;
8279;SDS011;8335;42.646;23.380;2023-10-13T08:03:01;22.05;;;9.18;;
8279;SDS011;8335;42.646;23.380;2023-10-13T08:05:42;18.67;;;8.80;;
8279;SDS011;8335;42.646;23.380;2023-10-13T08:08:21;17.95;;;8.48;;
8279;SDS011;8335;42.646;23.380;2023-10-13T08:10:51;20.05;;;9.15;;
8279;SDS011;8335;42.646;23.380;2023-10-13T08:13:21;17.65;;;10.18;;
8279;SDS011;8335;42.646;23.380;2023-10-13T08:15:48;23.83;;;11.50;;
8279;SDS011;8335;42.646;23.380;2023-10-13T08:18:19;23.27;;;10.65;;
8279;SDS011;8335;42.646;23.380;2023-10-13T08:20:55;21.67;;;10.20;;
8279;SDS011;8335;42.646;23.380;2023-10-13T08:23:27;20.65;;;10.20;;
8279;SDS011;8335;42.646;23.380;2023-10-13T08:26:20;21.20;;;9.88;;
8279;SDS011;8335;42.646;23.380;2023-10-13T08:28:55;17.40;;;9.80;;
8279;SDS011;8335;42.646;23.380;2023-10-13T08:31:22;21.98;;;11.10;;
8279;SDS011;8335;42.646;23.380;2023-10-13T08:33:52;30.42;;;11.30;;
8279;SDS011;8335;42.646;23.380;2023-10-13T08:36:30;29.67;;;12.13;;
8279;SDS011;8335;42.646;23.380;2023-10-13T08:38:58;28.63;;;12.95;;
8279;SDS011;8335;42.646;23.380;2023-10-13T08:41:41;22.75;;;11.52;;
8279;SDS011;8335;42.646;23.380;2023-10-13T08:44:23;26.35;;;12.98;;
8279;SDS011;8335;42.646;23.380;2023-10-13T08:46:58;24.45;;;13.10;;
8279;SDS011;8335;42.646;23.380;2023-10-13T08:49:33;21.80;;;11.85;;
8279;SDS011;8335;42.646;23.380;2023-10-13T08:52:09;24.05;;;12.65;;
8279;SDS011;8335;42.646;23.380;2023-10-13T08:54:50;24.00;;;10.95;;
8279;SDS011;8335;42.646;23.380;2023-10-13T08:57:38;24.35;;;10.48;;
8279;SDS011;8335;42.646;23.380;2023-10-13T09:00:08;21.25;;;11.48;;
8279;SDS011;8335;42.646;23.380;2023-10-13T09:03:14;24.23;;;10.95;;
8279;SDS011;8335;42.646;23.380;2023-10-13T09:06:04;19.48;;;11.20;;
8279;SDS011;8335;42.646;23.380;2023-10-13T09:08:33;19.13;;;10.30;;
8279;SDS011;8335;42.646;23.380;2023-10-13T09:11:09;15.40;;;10.75;;
8279;SDS011;8335;42.646;23.380;2023-10-13T09:13:45;23.45;;;10.20;;
8279;SDS011;8335;42.646;23.380;2023-10-13T09:16:11;16.08;;;10.43;;
8279;SDS011;8335;42.646;23.380;2023-10-13T09:18:47;19.75;;;10.95;;
8279;SDS011;8335;42.646;23.380;2023-10-13T09:21:15;20.73;;;11.25;;
8279;SDS011;8335;42.646;23.380;2023-10-13T09:24:08;24.80;;;11.35;;
8279;SDS011;8335;42.646;23.380;2023-10-13T09:26:47;25.88;;;11.38;;
8279;SDS011;8335;42.646;23.380;2023-10-13T09:29:16;16.73;;;11.20;;
8279;SDS011;8335;42.646;23.380;2023-10-13T09:31:43;27.60;;;12.05;;
8279;SDS011;8335;42.646;23.380;2023-10-13T09:34:19;22.50;;;12.82;;
8279;SDS011;8335;42.646;23.380;2023-10-13T09:36:47;23.85;;;11.77;;
8279;SDS011;8335;42.646;23.380;2023-10-13T09:39:21;21.60;;;10.88;;
8279;SDS011;8335;42.646;23.380;2023-10-13T09:41:55;21.85;;;11.80;;
8279;SDS011;8335;42.646;23.380;2023-10-13T09:44:24;20.70;;;11.43;;
8279;SDS011;8335;42.646;23.380;2023-10-13T09:46:55;20.58;;;11.30;;
8279;SDS011;8335;42.646;23.380;2023-10-13T09:49:33;19.73;;;11.10;;
8279;SDS011;8335;42.646;23.380;2023-10-13T09:52:11;23.42;;;11.77;;
8279;SDS011;8335;42.646;23.380;2023-10-13T09:54:44;22.30;;;12.00;;
8279;SDS011;8335;42.646;23.380;2023-10-13T09:57:24;20.45;;;11.20;;
8279;SDS011;8335;42.646;23.380;2023-10-13T10:00:00;24.40;;;11.82;;
8279;SDS011;8335;42.646;23.380;2023-10-13T10:02:40;17.08;;;10.88;;
8279;SDS011;8335;42.646;23.380;2023-10-13T10:05:09;18.67;;;11.38;;
8279;SDS011;8335;42.646;23.380;2023-10-13T10:07:40;21.23;;;11.05;;
8279;SDS011;8335;42.646;23.380;2023-10-13T10:10:09;22.95;;;10.30;;
8279;SDS011;8335;42.646;23.380;2023-10-13T10:12:37;23.25;;;10.60;;
8279;SDS011;8335;42.646;23.380;2023-10-13T10:15:19;25.60;;;10.68;;
8279;SDS011;8335;42.646;23.380;2023-10-13T10:17:55;20.52;;;9.77;;
8279;SDS011;8335;42.646;23.380;2023-10-13T10:20:32;22.20;;;10.00;;
8279;SDS011;8335;42.646;23.380;2023-10-13T10:23:06;16.80;;;9.10;;
8279;SDS011;8335;42.646;23.380;2023-10-13T10:25:35;15.18;;;8.68;;
8279;SDS011;8335;42.646;23.380;2023-10-13T10:28:03;11.70;;;7.97;;
8279;SDS011;8335;42.646;23.380;2023-10-13T10:30:32;16.90;;;7.30;;
8279;SDS011;8335;42.646;23.380;2023-10-13T10:33:00;16.92;;;8.20;;
8279;SDS011;8335;42.646;23.380;2023-10-13T10:35:32;14.70;;;7.05;;
8279;SDS011;8335;42.646;23.380;2023-10-13T10:38:08;19.23;;;7.60;;
8279;SDS011;8335;42.646;23.380;2023-10-13T10:40:51;12.90;;;6.57;;
8279;SDS011;8335;42.646;23.380;2023-10-13T10:43:22;14.02;;;6.43;;
8279;SDS011;8335;42.646;23.380;2023-10-13T10:45:51;12.68;;;5.07;;
8279;SDS011;8335;42.646;23.380;2023-10-13T10:48:24;8.25;;;4.72;;
8279;SDS011;8335;42.646;23.380;2023-10-13T10:50:56;11.90;;;5.05;;
8279;SDS011;8335;42.646;23.380;2023-10-13T10:53:25;14.07;;;5.35;;
8279;SDS011;8335;42.646;23.380;2023-10-13T10:56:08;10.68;;;5.03;;
8279;SDS011;8335;42.646;23.380;2023-10-13T10:58:45;13.27;;;4.93;;
8279;SDS011;8335;42.646;23.380;2023-10-13T11:01:11;7.97;;;4.22;;
8279;SDS011;8335;42.646;23.380;2023-10-13T11:03:52;11.27;;;4.40;;
8279;SDS011;8335;42.646;23.380;2023-10-13T11:06:22;10.02;;;4.65;;
8279;SDS011;8335;42.646;23.380;2023-10-13T11:09:02;13.65;;;4.93;;
8279;SDS011;8335;42.646;23.380;2023-10-13T11:11:43;8.85;;;5.45;;
8279;SDS011;8335;42.646;23.380;2023-10-13T11:14:19;11.50;;;4.88;;
8279;SDS011;8335;42.646;23.380;2023-10-13T11:16:48;8.50;;;4.50;;
8279;SDS011;8335;42.646;23.380;2023-10-13T11:19:16;12.27;;;4.85;;
8279;SDS011;8335;42.646;23.380;2023-10-13T11:21:50;18.20;;;5.50;;
8279;SDS011;8335;42.646;23.380;2023-10-13T11:24:22;11.75;;;4.70;;
8279;SDS011;8335;42.646;23.380;2023-10-13T11:26:49;9.38;;;4.00;;
8279;SDS011;8335;42.646;23.380;2023-10-13T11:29:17;10.40;;;4.03;;
8279;SDS011;8335;42.646;23.380;2023-10-13T11:31:48;11.27;;;4.18;;
8279;SDS011;8335;42.646;23.380;2023-10-13T11:34:23;9.15;;;4.10;;
8279;SDS011;8335;42.646;23.380;2023-10-13T11:36:50;7.60;;;3.72;;
8279;SDS011;8335;42.646;23.380;2023-10-13T11:39:18;6.25;;;3.53;;
8279;SDS011;8335;42.646;23.380;2023-10-13T11:41:50;6.85;;;3.65;;
8279;SDS011;8335;42.646;23.380;2023-10-13T11:44:20;9.25;;;3.65;;
8279;SDS011;8335;42.646;23.380;2023-10-13T11:46:56;7.60;;;2.90;;
8279;SDS011;8335;42.646;23.380;2023-10-13T11:49:33;7.15;;;3.25;;
8279;SDS011;8335;42.646;23.380;2023-10-13T11:52:02;7.35;;;3.30;;
8279;SDS011;8335;42.646;23.380;2023-10-13T11:54:43;7.63;;;3.53;;
8279;SDS011;8335;42.646;23.380;2023-10-13T11:57:13;6.65;;;3.42;;
8279;SDS011;8335;42.646;23.380;2023-10-13T11:59:42;7.35;;;3.63;;
8279;SDS011;8335;42.646;23.380;2023-10-13T12:02:19;11.18;;;4.57;;
8279;SDS011;8335;42.646;23.380;2023-10-13T12:05:04;10.50;;;4.15;;
8279;SDS011;8335;42.646;23.380;2023-10-13T12:07:38;11.23;;;3.83;;
8279;SDS011;8335;42.646;23.380;2023-10-13T12:10:17;13.07;;;4.07;;
8279;SDS011;8335;42.646;23.380;2023-10-13T12:13:15;8.68;;;3.30;;
8279;SDS011;8335;42.646;23.380;2023-10-13T12:15:42;7.22;;;3.38;;
8279;SDS011;8335;42.646;23.380;2023-10-13T12:18:17;11.48;;;3.70;;
8279;SDS011;8335;42.646;23.380;2023-10-13T12:20:47;5.88;;;3.20;;
8279;SDS011;8335;42.646;23.380;2023-10-13T12:23:14;9.35;;;3.30;;
8279;SDS011;8335;42.646;23.380;2023-10-13T12:25:46;7.65;;;3.28;;
8279;SDS011;8335;42.646;23.380;2023-10-13T12:28:26;7.72;;;3.33;;
8279;SDS011;8335;42.646;23.380;2023-10-13T12:30:54;5.03;;;3.20;;
8279;SDS011;8335;42.646;23.380;2023-10-13T12:33:22;5.47;;;3.30;;
8279;SDS011;8335;42.646;23.380;2023-10-13T12:35:58;7.90;;;3.38;;
8279;SDS011;8335;42.646;23.380;2023-10-13T12:38:32;6.60;;;3.50;;
8279;SDS011;8335;42.646;23.380;2023-10-13T12:41:47;8.07;;;3.88;;
8279;SDS011;8335;42.646;23.380;2023-10-13T12:44:32;6.32;;;3.58;;
8279;SDS011;8335;42.646;23.380;2023-10-13T12:47:17;7.45;;;2.97;;
8279;SDS011;8335;42.646;23.380;2023-10-13T12:50:00;11.73;;;3.90;;
8279;SDS011;8335;42.646;23.380;2023-10-13T12:52:51;9.57;;;3.50;;
8279;SDS011;8335;42.646;23.380;2023-10-13T12:55:18;5.60;;;3.53;;
8279;SDS011;8335;42.646;23.380;2023-10-13T12:57:49;9.82;;;3.42;;
8279;SDS011;8335;42.646;23.380;2023-10-13T13:00:18;9.13;;;3.40;;
8279;SDS011;8335;42.646;23.380;2023-10-13T13:02:51;13.48;;;3.35;;
8279;SDS011;8335;42.646;23.380;2023-10-13T13:05:20;7.18;;;3.50;;
8279;SDS011;8335;42.646;23.380;2023-10-13T13:07:53;10.00;;;3.65;;
8279;SDS011;8335;42.646;23.380;2023-10-13T13:10:20;11.80;;;3.60;;
8279;SDS011;8335;42.646;23.380;2023-10-13T13:13:00;9.60;;;3.08;;
8279;SDS011;8335;42.646;23.380;2023-10-13T13:15:29;10.95;;;3.97;;
8279;SDS011;8335;42.646;23.380;2023-10-13T13:17:56;8.88;;;3.78;;
8279;SDS011;8335;42.646;23.380;2023-10-13T13:20:23;8.15;;;3.33;;
8279;SDS011;8335;42.646;23.380;2023-10-13T13:22:54;11.52;;;3.55;;
8279;SDS011;8335;42.646;23.380;2023-10-13T13:25:27;8.95;;;3.28;;
8279;SDS011;8335;42.646;23.380;2023-10-13T13:27:55;8.00;;;3.70;;
8279;SDS011;8335;42.646;23.380;2023-10-13T13:30:23;6.18;;;3.58;;
8279;SDS011;8335;42.646;23.380;2023-10-13T13:32:57;8.65;;;3.45;;
8279;SDS011;8335;42.646;23.380;2023-10-13T13:35:29;5.55;;;3.45;;
8279;SDS011;8335;42.646;23.380;2023-10-13T13:38:00;5.65;;;3.50;;
8279;SDS011;8335;42.646;23.380;2023-10-13T13:40:35;11.48;;;4.95;;
8279;SDS011;8335;42.646;23.380;2023-10-13T13:43:03;22.42;;;14.55;;
8279;SDS011;8335;42.646;23.380;2023-10-13T13:45:31;7.43;;;3.85;;
8279;SDS011;8335;42.646;23.380;2023-10-13T13:48:01;7.65;;;3.33;;
8279;SDS011;8335;42.646;23.380;2023-10-13T13:50:33;6.85;;;3.13;;
8279;SDS011;8335;42.646;23.380;2023-10-13T13:53:06;11.55;;;3.63;;
8279;SDS011;8335;42.646;23.380;2023-10-13T13:55:35;5.88;;;3.80;;
8279;SDS011;8335;42.646;23.380;2023-10-13T13:58:05;5.88;;;3.90;;
8279;SDS011;8335;42.646;23.380;2023-10-13T14:00:34;6.72;;;3.67;;
8279;SDS011;8335;42.646;23.380;2023-10-13T14:03:05;9.52;;;4.03;;
8279;SDS011;8335;42.646;23.380;2023-10-13T14:05:40;7.93;;;3.75;;
8279;SDS011;8335;42.646;23.380;2023-10-13T14:08:07;12.90;;;4.28;;
8279;SDS011;8335;42.646;23.380;2023-10-13T14:10:38;12.38;;;3.78;;
8279;SDS011;8335;42.646;23.380;2023-10-13T14:13:18;12.70;;;3.70;;
8279;SDS011;8335;42.646;23.380;2023-10-13T14:15:47;10.95;;;3.33;;
8279;SDS011;8335;42.646;23.380;2023-10-13T14:18:15;8.52;;;4.05;;
8279;SDS011;8335;42.646;23.380;2023-10-13T14:20:42;13.80;;;3.95;;
8279;SDS011;8335;42.646;23.380;2023-10-13T14:23:09;6.13;;;3.60;;
8279;SDS011;8335;42.646;23.380;2023-10-13T14:25:38;9.38;;;3.65;;
8279;SDS011;8335;42.646;23.380;2023-10-13T14:28:09;13.75;;;3.97;;
8279;SDS011;8335;42.646;23.380;2023-10-13T14:30:42;6.43;;;3.40;;
8279;SDS011;8335;42.646;23.380;2023-10-13T14:33:09;10.98;;;4.38;;
8279;SDS011;8335;42.646;23.380;2023-10-13T14:35:37;9.07;;;3.90;;
8279;SDS011;8335;42.646;23.380;2023-10-13T14:38:04;9.65;;;4.60;;
8279;SDS011;8335;42.646;23.380;2023-10-13T14:40:32;11.20;;;4.03;;
8279;SDS011;8335;42.646;23.380;2023-10-13T14:42:59;10.93;;;4.05;;
8279;SDS011;8335;42.646;23.380;2023-10-13T14:45:25;9.10;;;4.40;;
8279;SDS011;8335;42.646;23.380;2023-10-13T14:47:52;9.88;;;3.95;;
8279;SDS011;8335;42.646;23.380;2023-10-13T14:50:19;6.97;;;4.03;;
8279;SDS011;8335;42.646;23.380;2023-10-13T14:52:48;11.68;;;4.10;;
8279;SDS011;8335;42.646;23.380;2023-10-13T14:55:15;10.63;;;4.05;;
8279;SDS011;8335;42.646;23.380;2023-10-13T14:58:03;10.63;;;4.05;;
8279;SDS011;8335;42.646;23.380;2023-10-13T15:00:32;10.52;;;4.03;;
8279;SDS011;8335;42.646;23.380;2023-10-13T15:03:00;10.50;;;4.03;;
8279;SDS011;8335;42.646;23.380;2023-10-13T15:05:27;12.93;;;4.60;;
8279;SDS011;8335;42.646;23.380;2023-10-13T15:07:58;11.15;;;4.25;;
8279;SDS011;8335;42.646;23.380;2023-10-13T15:10:25;11.23;;;4.45;;
8279;SDS011;8335;42.646;23.380;2023-10-13T15:12:52;10.32;;;4.55;;
8279;SDS011;8335;42.646;23.380;2023-10-13T15:15:18;15.38;;;4.30;;
8279;SDS011;8335;42.646;23.380;2023-10-13T15:17:45;13.55;;;4.53;;
8279;SDS011;8335;42.646;23.380;2023-10-13T15:20:13;11.57;;;4.38;;
8279;SDS011;8335;42.646;23.380;2023-10-13T15:22:42;12.75;;;4.68;;
8279;SDS011;8335;42.646;23.380;2023-10-13T15:25:10;8.30;;;4.15;;
8279;SDS011;8335;42.646;23.380;2023-10-13T15:27:46;11.98;;;4.75;;
8279;SDS011;8335;42.646;23.380;2023-10-13T15:30:21;10.63;;;4.85;;